Time;durP1;ratioP1;P1;durP2;ratioP2;P2;SDS_P1;SDS_P2;PMS_P1;PMS_P2;Temp;Humidity;BMP_temperature;BMP_pressure;BME280_temperature;BME280_humidity;BME280_pressure;Samples;Min_cycle;Max_cycle;Signal;HPM_P1;HPM_P2
2023/12/31 00:02:03;;;;;;;;;4.00;2.75;;;;;-146.67;55.11;74505.91;5083628;28;61876;-78
2023/12/31 00:04:28;;;;;;;;;5.00;4.00;;;;;-146.67;55.03;74509.88;5085242;28;61718;-78
2023/12/31 00:06:54;;;;;;;;;3.00;3.00;;;;;-146.67;55.02;74509.88;5083990;28;62112;-78
2023/12/31 00:09:19;;;;;;;;;6.25;2.75;;;;;-146.67;54.99;74489.94;5084026;27;61735;-78
2023/12/31 00:11:44;;;;;;;;;3.75;3.00;;;;;-146.67;54.92;74493.91;5085092;27;61750;-78
2023/12/31 00:14:10;;;;;;;;;5.50;3.00;;;;;-146.67;54.85;74475.94;5084257;27;62222;-78
2023/12/31 00:16:35;;;;;;;;;5.50;3.00;;;;;-146.67;55.06;74481.94;5085375;27;61742;-78
2023/12/31 00:19:01;;;;;;;;;2.75;2.75;;;;;-146.67;55.07;74473.97;5082365;28;63530;-77
2023/12/31 00:21:27;;;;;;;;;3.00;1.00;;;;;-146.67;54.97;74461.97;5084688;28;61985;-77
2023/12/31 00:23:52;;;;;;;;;2.00;2.00;;;;;-146.67;55.17;74471.97;5084733;27;61888;-77
2023/12/31 00:26:17;;;;;;;;;4.00;3.00;;;;;-146.67;55.20;74461.97;5083486;28;62230;-77
2023/12/31 00:28:43;;;;;;;;;3.50;3.00;;;;;-146.67;55.00;74456.00;5084016;27;61987;-77
2023/12/31 00:31:08;;;;;;;;;3.00;3.00;;;;;-146.67;55.42;74450.00;5084661;27;61808;-77
2023/12/31 00:33:33;;;;;;;;;7.00;2.00;;;;;-146.67;55.34;74457.97;5084776;27;61799;-77
2023/12/31 00:36:00;;;;;;;;;4.00;4.00;;;;;-146.67;55.39;74454.00;5099184;27;61855;-77
2023/12/31 00:38:26;;;;;;;;;5.00;2.00;;;;;-146.67;55.34;74456.00;5083663;27;61795;-78
2023/12/31 00:40:52;;;;;;;;;9.50;3.50;;;;;-146.67;55.52;74456.00;5084256;28;61994;-78
2023/12/31 00:43:17;;;;;;;;;6.75;4.25;;;;;-146.67;55.50;74459.97;5084495;27;61961;-77
2023/12/31 00:45:43;;;;;;;;;4.25;3.75;;;;;-146.67;55.44;74432.03;5084132;27;62078;-77
2023/12/31 00:48:08;;;;;;;;;7.00;4.00;;;;;-146.67;55.33;74442.00;5083875;27;62196;-78
2023/12/31 00:50:34;;;;;;;;;4.00;2.25;;;;;-146.67;55.66;74450.00;5083851;27;61961;-78
2023/12/31 00:53:00;;;;;;;;;3.25;3.00;;;;;-146.67;55.66;74452.00;5083933;27;62020;-78
2023/12/31 00:55:26;;;;;;;;;3.75;2.50;;;;;-146.67;55.52;74434.03;5084186;28;61977;-77
2023/12/31 00:57:52;;;;;;;;;7.50;4.00;;;;;-146.67;55.39;74416.06;5082463;28;63572;-77
2023/12/31 01:00:18;;;;;;;;;3.75;3.00;;;;;-146.67;55.23;74402.09;5083751;27;61735;-77
2023/12/31 01:02:44;;;;;;;;;3.25;2.50;;;;;-146.67;55.37;74406.06;5082955;28;62056;-77
2023/12/31 01:05:09;;;;;;;;;3.75;3.75;;;;;-146.67;55.46;74404.09;5084135;28;61785;-77
2023/12/31 01:07:34;;;;;;;;;1.75;1.75;;;;;-146.67;55.46;74402.09;5083028;27;61716;-77
2023/12/31 01:10:00;;;;;;;;;5.50;3.50;;;;;-146.67;55.41;74378.13;5084086;27;61849;-77
2023/12/31 01:12:25;;;;;;;;;4.50;4.00;;;;;-146.67;55.18;74368.16;5083930;27;61743;-78
2023/12/31 01:14:50;;;;;;;;;2.00;2.00;;;;;-146.67;55.15;74368.16;5099475;27;61997;-78
2023/12/31 01:17:16;;;;;;;;;6.00;3.00;;;;;-146.67;55.18;74356.16;5083666;27;61845;-77
2023/12/31 01:19:41;;;;;;;;;4.50;2.00;;;;;-146.67;55.19;74358.16;5081308;28;61719;-77
2023/12/31 01:22:06;;;;;;;;;4.00;2.50;;;;;-146.67;55.09;74360.16;5082120;28;61783;-78
2023/12/31 01:24:32;;;;;;;;;7.50;4.00;;;;;-146.67;55.25;74364.16;5084158;27;62016;-78
2023/12/31 01:26:58;;;;;;;;;7.00;3.00;;;;;-146.67;55.25;74342.19;5081856;28;64017;-78
2023/12/31 01:29:23;;;;;;;;;5.25;3.00;;;;;-146.67;55.17;74340.19;5083343;27;61762;-77
2023/12/31 01:31:49;;;;;;;;;4.00;3.75;;;;;-146.67;54.91;74336.19;5083896;27;61926;-78
2023/12/31 01:34:14;;;;;;;;;6.25;2.25;;;;;-146.67;55.06;74336.19;5083785;28;62028;-77
2023/12/31 01:36:40;;;;;;;;;6.00;5.00;;;;;-146.67;54.99;74326.22;5082669;27;61773;-77
2023/12/31 01:39:07;;;;;;;;;6.50;4.00;;;;;-146.67;55.06;74320.22;5099463;27;62001;-77
2023/12/31 01:41:32;;;;;;;;;3.25;3.00;;;;;-146.67;55.10;74306.25;5083445;27;61701;-77
2023/12/31 01:44:06;;;;;;;;;6.00;5.75;;;;;-146.67;54.83;74302.25;5083392;27;61773;-77
2023/12/31 01:46:34;;;;;;;;;4.00;4.00;;;;;-146.67;54.75;74296.28;5081285;28;63906;-77
2023/12/31 01:49:00;;;;;;;;;3.00;3.00;;;;;-146.67;54.82;74298.28;5083065;27;61839;-78
2023/12/31 01:51:27;;;;;;;;;3.25;3.25;;;;;-146.67;54.97;74314.25;5081561;28;61934;-78
2023/12/31 01:53:55;;;;;;;;;4.25;3.75;;;;;-146.67;55.01;74314.25;5083748;27;61769;-78
2023/12/31 01:56:21;;;;;;;;;5.00;5.00;;;;;-146.67;55.14;74306.25;5098390;27;64872;-78
2023/12/31 01:58:48;;;;;;;;;3.75;3.75;;;;;-146.67;55.40;74308.25;5082870;27;61926;-78
2023/12/31 02:01:14;;;;;;;;;5.75;4.25;;;;;-146.67;55.08;74312.25;5083431;28;61746;-78
2023/12/31 02:03:39;;;;;;;;;4.50;4.50;;;;;-146.67;55.09;74288.28;5083355;27;62061;-77
2023/12/31 02:06:06;;;;;;;;;3.75;2.75;;;;;-146.67;55.11;74278.31;5080645;28;63732;-77
2023/12/31 02:08:31;;;;;;;;;6.00;3.75;;;;;-146.67;55.10;74268.31;5083393;28;61890;-77
2023/12/31 02:10:57;;;;;;;;;3.00;3.00;;;;;-146.67;55.08;74286.28;5083168;27;61864;-77
2023/12/31 02:13:22;;;;;;;;;3.25;1.75;;;;;-146.67;55.03;74280.31;5083306;27;61951;-77
2023/12/31 02:15:51;;;;;;;;;4.00;3.00;;;;;-146.67;54.77;74268.31;5097524;27;63942;-78
2023/12/31 02:18:16;;;;;;;;;6.75;4.00;;;;;-146.67;54.95;74276.31;5083191;27;61969;-78
2023/12/31 02:20:44;;;;;;;;;5.00;3.00;;;;;-146.67;54.88;74264.34;5081908;27;62260;-78
2023/12/31 02:23:09;;;;;;;;;4.50;3.50;;;;;-146.67;55.08;74256.34;5083420;27;61875;-78
2023/12/31 02:25:38;;;;;;;;;4.75;3.00;;;;;-146.67;54.80;74246.38;5080816;28;64933;-78
2023/12/31 02:28:07;;;;;;;;;7.00;3.50;;;;;-146.67;54.92;74254.34;5082932;27;61876;-78
2023/12/31 02:30:32;;;;;;;;;6.00;3.25;;;;;-146.67;54.92;74262.34;5082967;27;62677;-78
2023/12/31 02:32:58;;;;;;;;;3.00;3.00;;;;;-146.67;54.89;74264.34;5082889;27;61829;-78
2023/12/31 02:35:23;;;;;;;;;3.25;3.25;;;;;-146.67;54.82;74250.38;5080271;28;63608;-78
2023/12/31 02:37:48;;;;;;;;;3.75;2.75;;;;;-146.67;54.53;74258.34;5081505;28;61777;-77
2023/12/31 02:40:14;;;;;;;;;4.00;3.50;;;;;-146.67;54.92;74248.38;5082858;27;61853;-77
2023/12/31 02:42:39;;;;;;;;;2.50;2.50;;;;;-146.67;54.58;74236.38;5082848;27;61924;-78
2023/12/31 02:45:05;;;;;;;;;3.50;3.50;;;;;-146.67;54.42;74244.38;5081892;27;62572;-78
2023/12/31 02:47:30;;;;;;;;;3.50;2.50;;;;;-146.67;54.33;74238.38;5081405;28;62189;-77
2023/12/31 02:49:56;;;;;;;;;3.50;3.50;;;;;-146.67;54.09;74228.41;5081762;27;62464;-78
2023/12/31 02:52:21;;;;;;;;;4.00;3.50;;;;;-146.67;53.99;74218.41;5082877;27;62155;-78
2023/12/31 02:54:46;;;;;;;;;2.50;2.50;;;;;-146.67;53.82;74224.41;5081808;27;61918;-78
2023/12/31 02:57:12;;;;;;;;;2.50;2.50;;;;;-146.67;53.72;74202.44;5082618;27;62095;-77
2023/12/31 02:59:38;;;;;;;;;2.25;2.25;;;;;-146.67;53.51;74206.44;5084815;27;61942;-77
2023/12/31 03:02:04;;;;;;;;;4.00;4.00;;;;;-146.67;53.36;74198.47;5084656;28;62132;-77
2023/12/31 03:04:29;;;;;;;;;4.50;3.25;;;;;-146.67;53.28;74192.47;5085048;27;61916;-77
2023/12/31 03:06:55;;;;;;;;;2.00;2.00;;;;;-146.67;53.25;74190.47;5085977;27;61869;-77
2023/12/31 03:09:21;;;;;;;;;2.75;2.00;;;;;-146.67;53.21;74180.50;5086203;27;61846;-78
2023/12/31 03:11:47;;;;;;;;;3.75;3.75;;;;;-146.67;53.42;74176.50;5084755;28;62177;-78
2023/12/31 03:14:15;;;;;;;;;3.00;3.00;;;;;-146.67;54.21;74174.50;5084879;27;62068;-77
2023/12/31 03:16:44;;;;;;;;;3.00;3.00;;;;;-146.67;58.51;74168.50;5085850;27;62012;-77
2023/12/31 03:19:14;;;;;;;;;3.25;2.50;;;;;-146.67;56.13;74162.53;5085074;27;61751;-77
2023/12/31 03:21:40;;;;;;;;;4.00;3.00;;;;;-146.67;56.54;74162.53;5086044;27;61743;-77
2023/12/31 03:24:06;;;;;;;;;3.50;3.50;;;;;-146.67;55.98;74164.53;5083800;28;63745;-77
2023/12/31 03:26:32;;;;;;;;;2.50;2.00;;;;;-146.67;56.22;74166.50;5085872;28;61711;-77
2023/12/31 03:28:57;;;;;;;;;3.75;2.75;;;;;-146.67;56.12;74146.56;5085214;27;61917;-78
2023/12/31 03:31:22;;;;;;;;;3.00;3.00;;;;;-146.67;56.11;74134.56;5085744;27;61888;-78
2023/12/31 03:33:48;;;;;;;;;5.00;3.00;;;;;-146.67;55.43;74132.56;5084944;27;61850;-77
2023/12/31 03:36:13;;;;;;;;;3.50;2.50;;;;;-146.67;55.29;74136.56;5083868;28;61893;-77
2023/12/31 03:38:38;;;;;;;;;2.75;2.75;;;;;-146.67;54.81;74134.56;5084162;28;61852;-78
2023/12/31 03:41:04;;;;;;;;;3.00;1.00;;;;;-146.67;55.23;74136.56;5085517;27;62141;-77
2023/12/31 03:43:30;;;;;;;;;2.75;2.75;;;;;-146.67;54.83;74126.59;5085021;27;62645;-78
2023/12/31 03:45:56;;;;;;;;;3.00;1.25;;;;;-146.67;55.30;74120.59;5085098;27;62207;-78
2023/12/31 03:48:22;;;;;;;;;3.50;2.25;;;;;-146.67;57.32;74120.59;5085211;27;61968;-78
2023/12/31 03:50:47;;;;;;;;;4.75;4.00;;;;;-146.67;58.28;74120.59;5100809;27;62057;-77
2023/12/31 03:53:13;;;;;;;;;4.75;1.75;;;;;-146.67;66.94;74148.56;5084518;27;61897;-77
2023/12/31 03:55:38;;;;;;;;;2.00;2.00;;;;;-146.67;67.39;74178.50;5085238;27;61791;-77
2023/12/31 03:58:05;;;;;;;;;3.50;1.00;;;;;-146.67;72.07;74196.47;5085333;27;62003;-78
2023/12/31 04:00:31;;;;;;;;;3.00;3.00;;;;;-146.67;74.70;74202.44;5085250;28;61966;-78
2023/12/31 04:02:56;;;;;;;;;3.25;2.00;;;;;-146.67;76.06;74222.41;5084029;27;61743;-77
2023/12/31 04:05:21;;;;;;;;;2.00;2.00;;;;;-146.67;85.24;74238.38;5085057;27;61660;-78
2023/12/31 04:07:47;;;;;;;;;2.00;1.00;;;;;-146.67;84.79;74240.38;5085293;27;62187;-78
2023/12/31 04:10:12;;;;;;;;;5.50;2.50;;;;;-146.67;78.53;74246.38;5084981;27;61755;-78
2023/12/31 04:12:38;;;;;;;;;2.00;2.00;;;;;-146.67;79.93;74228.41;5084482;27;61766;-78
2023/12/31 04:15:07;;;;;;;;;2.00;2.00;;;;;-146.67;100.00;74256.34;5084517;27;61723;-78
2023/12/31 04:17:35;;;;;;;;;0.00;0.00;;;;;-146.67;100.00;74278.31;5084683;28;61985;-78
2023/12/31 04:20:00;;;;;;;;;2.25;2.00;;;;;-146.67;100.00;74268.31;5084488;27;61793;-78
2023/12/31 04:22:26;;;;;;;;;2.00;2.00;;;;;-146.67;100.00;74248.38;5082745;28;64075;-78
2023/12/31 04:24:51;;;;;;;;;1.50;1.50;;;;;-146.67;100.00;74238.38;5084954;27;61880;-78
2023/12/31 04:27:18;;;;;;;;;2.00;1.50;;;;;-146.67;100.00;74238.38;5084563;28;61734;-77
2023/12/31 04:29:43;;;;;;;;;2.00;1.00;;;;;-146.67;100.00;74230.41;5082877;28;61966;-78
2023/12/31 04:32:09;;;;;;;;;2.25;1.00;;;;;-146.67;87.05;74242.38;5082610;28;63561;-78
2023/12/31 04:34:34;;;;;;;;;3.25;0.25;;;;;-146.67;82.36;74252.34;5084936;27;61893;-77
2023/12/31 04:37:00;;;;;;;;;1.00;1.00;;;;;-146.67;77.97;74248.38;5083239;28;62370;-78
2023/12/31 04:39:25;;;;;;;;;2.00;0.50;;;;;-146.67;77.24;74246.38;5084799;27;61852;-78
2023/12/31 04:41:50;;;;;;;;;0.00;0.00;;;;;-146.67;73.52;74246.38;5084104;27;62156;-78
2023/12/31 04:44:16;;;;;;;;;0.00;0.00;;;;;-146.67;72.61;74230.41;5099683;27;61788;-78
2023/12/31 04:46:41;;;;;;;;;0.00;0.00;;;;;-146.67;69.16;74230.41;5084804;27;61855;-78
2023/12/31 04:49:07;;;;;;;;;0.00;0.00;;;;;-146.67;69.04;74234.38;5082842;28;61892;-78
2023/12/31 04:51:32;;;;;;;;;0.00;0.00;;;;;-146.67;66.48;74236.38;5099517;27;63706;-78
2023/12/31 04:53:57;;;;;;;;;0.00;0.00;;;;;-146.67;64.65;74244.38;5084534;27;61627;-78
2023/12/31 04:56:25;;;;;;;;;0.00;0.00;;;;;-146.67;65.35;74242.38;5084332;27;61798;-78
2023/12/31 04:58:54;;;;;;;;;0.00;0.00;;;;;-146.67;71.79;74234.38;5084111;27;61955;-78
2023/12/31 05:01:19;;;;;;;;;0.00;0.00;;;;;-146.67;64.61;74246.38;5083383;27;61829;-77
2023/12/31 05:03:46;;;;;;;;;5.00;2.75;;;;;-146.67;64.26;74242.38;5083014;28;61979;-77
2023/12/31 05:06:13;;;;;;;;;0.00;0.00;;;;;-146.67;63.76;74232.41;5084149;27;61791;-77
2023/12/31 05:08:43;;;;;;;;;0.00;0.00;;;;;-146.67;64.23;74238.38;5084476;27;61769;-77
2023/12/31 05:11:08;;;;;;;;;2.00;2.00;;;;;-146.67;72.81;74262.34;5083564;27;62466;-77
2023/12/31 05:13:34;;;;;;;;;1.00;0.00;;;;;-146.67;69.21;74278.31;5081972;28;61895;-78
2023/12/31 05:16:00;;;;;;;;;0.00;0.00;;;;;-146.67;66.93;74288.28;5084002;27;61854;-78
2023/12/31 05:18:25;;;;;;;;;0.25;0.25;;;;;-146.67;65.26;74280.31;5099860;27;62120;-78
2023/12/31 05:20:51;;;;;;;;;0.00;0.00;;;;;-146.67;65.52;74252.34;5098088;27;63922;-78
2023/12/31 05:23:16;;;;;;;;;1.00;0.00;;;;;-146.67;64.10;74266.34;5084005;27;61950;-78
2023/12/31 05:25:41;;;;;;;;;0.00;0.00;;;;;-146.67;63.05;74264.34;5082365;28;61768;-78
2023/12/31 05:28:07;;;;;;;;;1.00;1.00;;;;;-146.67;63.67;74244.38;5083861;27;62041;-77
2023/12/31 05:30:32;;;;;;;;;1.00;1.00;;;;;-146.67;62.67;74252.34;5083141;27;61853;-78
2023/12/31 05:32:57;;;;;;;;;1.00;0.00;;;;;-146.67;62.18;74240.38;5083700;27;61965;-78
2023/12/31 05:35:23;;;;;;;;;0.00;0.00;;;;;-146.67;62.21;74246.38;5083671;27;61954;-78
2023/12/31 05:37:48;;;;;;;;;0.00;0.00;;;;;-146.67;61.99;74234.38;5082685;28;61844;-78
2023/12/31 05:40:13;;;;;;;;;0.00;0.00;;;;;-146.67;60.20;74228.41;5083075;27;61725;-78
2023/12/31 05:42:39;;;;;;;;;1.00;0.00;;;;;-146.67;60.08;74222.41;5098999;27;61900;-78
2023/12/31 05:45:05;;;;;;;;;0.00;0.00;;;;;-146.67;59.36;74224.41;5083312;27;61838;-78
2023/12/31 05:47:30;;;;;;;;;0.00;0.00;;;;;-146.67;59.38;74232.41;5083719;27;61900;-78
2023/12/31 05:49:56;;;;;;;;;0.00;0.00;;;;;-146.67;59.30;74236.38;5082465;27;61722;-78
2023/12/31 05:52:21;;;;;;;;;0.50;0.00;;;;;-146.67;58.19;74228.41;5083516;27;61936;-78
2023/12/31 05:54:46;;;;;;;;;3.00;0.00;;;;;-146.67;57.80;74228.41;5082126;28;62452;-78
2023/12/31 05:57:12;;;;;;;;;0.75;0.00;;;;;-146.67;57.46;74224.41;5083226;27;61861;-78
2023/12/31 05:59:37;;;;;;;;;1.00;0.00;;;;;-146.67;57.72;74250.38;5082571;27;62201;-78
2023/12/31 06:02:02;;;;;;;;;0.00;0.00;;;;;-146.67;57.58;74258.34;5083191;27;61912;-78
2023/12/31 06:04:28;;;;;;;;;0.00;0.00;;;;;-146.67;58.15;74272.31;5083365;27;61917;-78
2023/12/31 06:06:53;;;;;;;;;1.00;0.00;;;;;-146.67;57.50;74276.31;5081969;28;61879;-78
2023/12/31 06:09:18;;;;;;;;;0.00;0.00;;;;;-146.67;57.11;74288.28;5082813;27;61933;-78
2023/12/31 06:11:44;;;;;;;;;0.50;0.50;;;;;-146.67;56.93;74282.31;5082716;27;61882;-77
2023/12/31 06:14:09;;;;;;;;;0.00;0.00;;;;;-146.67;56.56;74274.31;5081478;28;62273;-78
2023/12/31 06:16:34;;;;;;;;;0.00;0.00;;;;;-146.67;56.29;74276.31;5083604;27;61989;-78
2023/12/31 06:19:00;;;;;;;;;0.00;0.00;;;;;-146.67;56.37;74274.31;5080418;28;64750;-78
2023/12/31 06:21:25;;;;;;;;;2.00;0.00;;;;;-146.67;56.22;74266.34;5082990;27;61873;-78
2023/12/31 06:23:51;;;;;;;;;0.00;0.00;;;;;-146.67;55.80;74270.31;5098975;27;61875;-78
2023/12/31 06:26:16;;;;;;;;;0.00;0.00;;;;;-146.67;55.16;74268.31;5082931;27;61909;-78
2023/12/31 06:28:42;;;;;;;;;0.00;0.00;;;;;-146.67;54.53;74274.31;5082313;27;62011;-77
2023/12/31 06:31:09;;;;;;;;;0.00;0.00;;;;;-146.67;54.47;74284.28;5082721;27;62023;-77
2023/12/31 06:33:34;;;;;;;;;0.00;0.00;;;;;-146.67;53.67;74288.28;5081698;27;61932;-78
2023/12/31 06:36:00;;;;;;;;;0.00;0.00;;;;;-146.67;53.68;74288.28;5083067;27;62164;-78
2023/12/31 06:38:25;;;;;;;;;0.00;0.00;;;;;-146.67;53.54;74272.31;5082603;27;61890;-78
2023/12/31 06:40:51;;;;;;;;;2.00;0.00;;;;;-146.67;53.03;74288.28;5082417;27;61817;-78
2023/12/31 06:43:16;;;;;;;;;0.00;0.00;;;;;-146.67;53.23;74276.31;5082780;28;62073;-78
2023/12/31 06:45:41;;;;;;;;;1.00;0.00;;;;;-146.67;53.06;74306.25;5082705;27;61849;-78
2023/12/31 06:48:07;;;;;;;;;0.00;0.00;;;;;-146.67;52.97;74290.28;5082171;27;62227;-78
2023/12/31 06:50:33;;;;;;;;;1.00;0.00;;;;;-146.67;52.73;74302.25;5082272;27;61729;-78
2023/12/31 06:52:59;;;;;;;;;0.00;0.00;;;;;-146.67;52.72;74298.28;5098186;27;61820;-78
2023/12/31 06:55:24;;;;;;;;;0.00;0.00;;;;;-146.67;52.55;74298.28;5082524;27;61861;-77
2023/12/31 06:57:50;;;;;;;;;0.00;0.00;;;;;-146.67;52.87;74306.25;5082082;27;62124;-78
2023/12/31 07:00:16;;;;;;;;;0.00;0.00;;;;;-146.67;52.90;74310.25;5082262;27;62013;-77
2023/12/31 07:02:41;;;;;;;;;2.75;0.00;;;;;-146.67;53.08;74334.22;5082578;28;62068;-78
2023/12/31 07:05:08;;;;;;;;;0.00;0.00;;;;;-146.67;53.01;74338.19;5082529;27;62286;-77
2023/12/31 07:07:33;;;;;;;;;0.50;0.50;;;;;-146.67;52.85;74336.19;5080416;28;63983;-77
2023/12/31 07:09:59;;;;;;;;;0.00;0.00;;;;;-146.67;52.93;74358.16;5082134;27;61822;-77
2023/12/31 07:12:24;;;;;;;;;0.00;0.00;;;;;-146.67;52.84;74362.16;5082276;27;61940;-77
2023/12/31 07:14:50;;;;;;;;;0.00;0.00;;;;;-146.67;52.90;74376.13;5082060;27;61708;-77
2023/12/31 07:17:15;;;;;;;;;0.75;0.00;;;;;-146.67;53.12;74376.13;5081977;27;62550;-78
2023/12/31 07:19:41;;;;;;;;;1.00;0.00;;;;;-146.67;53.09;74396.09;5081829;27;61757;-78
2023/12/31 07:22:06;;;;;;;;;5.00;3.00;;;;;-146.67;53.09;74394.09;5081967;27;61997;-77
2023/12/31 07:24:34;;;;;;;;;1.25;1.00;;;;;-146.67;52.95;74392.09;5082497;27;61687;-78
2023/12/31 07:26:59;;;;;;;;;0.00;0.00;;;;;-146.67;52.88;74400.09;5081542;27;62181;-78
2023/12/31 07:29:25;;;;;;;;;0.00;0.00;;;;;-146.67;52.79;74408.06;5081924;27;61886;-78
2023/12/31 07:31:50;;;;;;;;;1.00;0.00;;;;;-146.67;52.57;74406.06;5082381;28;61933;-78
2023/12/31 07:34:16;;;;;;;;;0.00;0.00;;;;;-146.67;52.57;74416.06;5082133;27;61751;-78
2023/12/31 07:36:41;;;;;;;;;0.00;0.00;;;;;-146.67;52.26;74424.03;5081545;27;61903;-77
2023/12/31 07:39:07;;;;;;;;;0.00;0.00;;;;;-146.67;52.13;74424.03;5080564;28;62071;-77
2023/12/31 07:41:32;;;;;;;;;0.00;0.00;;;;;-146.67;52.18;74432.03;5082019;27;61877;-77
2023/12/31 07:43:59;;;;;;;;;0.00;0.00;;;;;-146.67;52.04;74454.00;5082048;27;61833;-78
2023/12/31 07:46:25;;;;;;;;;0.00;0.00;;;;;-146.67;52.09;74454.00;5083802;28;62931;-78
2023/12/31 07:48:52;;;;;;;;;0.00;0.00;;;;;-146.67;52.07;74456.00;5084295;28;61887;-78
2023/12/31 07:51:18;;;;;;;;;0.00;0.00;;;;;-146.67;51.71;74463.97;5085693;28;61938;-78
2023/12/31 07:53:44;;;;;;;;;3.00;0.00;;;;;-146.67;51.75;74475.94;5085366;27;61837;-78
2023/12/31 07:56:09;;;;;;;;;0.00;0.00;;;;;-146.67;51.63;74469.97;5084764;27;61935;-78
2023/12/31 07:58:35;;;;;;;;;0.00;0.00;;;;;-146.67;51.84;74489.94;5084133;28;61812;-77
2023/12/31 08:01:02;;;;;;;;;0.00;0.00;;;;;-146.67;51.82;74489.94;5085598;27;62052;-78
2023/12/31 08:03:28;;;;;;;;;0.00;0.00;;;;;-146.67;51.68;74493.91;5085439;28;61807;-77
2023/12/31 08:05:53;;;;;;;;;0.00;0.00;;;;;-146.67;51.46;74493.91;5084507;28;62879;-77
2023/12/31 08:08:19;;;;;;;;;0.00;0.00;;;;;-146.67;51.52;74497.91;5084743;27;62045;-78
2023/12/31 08:10:44;;;;;;;;;1.00;1.00;;;;;-146.67;51.69;74509.88;5085095;27;61970;-78
2023/12/31 08:13:10;;;;;;;;;1.75;0.00;;;;;-146.67;51.46;74507.91;5085317;28;61933;-78
2023/12/31 08:15:35;;;;;;;;;1.00;0.00;;;;;-146.67;51.49;74499.91;5083927;28;61949;-78
2023/12/31 08:18:02;;;;;;;;;1.75;0.00;;;;;-146.67;51.36;74495.91;5085182;27;62022;-78
2023/12/31 08:20:28;;;;;;;;;1.00;0.00;;;;;-146.67;51.44;74497.91;5084727;27;61637;-78
2023/12/31 08:22:53;;;;;;;;;1.50;0.25;;;;;-146.67;51.24;74503.91;5084700;27;61807;-78
2023/12/31 08:25:19;;;;;;;;;1.75;0.00;;;;;-146.67;51.33;74501.91;5084313;27;61814;-78
2023/12/31 08:27:45;;;;;;;;;1.00;0.00;;;;;-146.67;50.96;74501.91;5084855;27;62079;-77
2023/12/31 08:30:10;;;;;;;;;0.00;0.00;;;;;-146.67;50.85;74499.91;5084505;27;61689;-77
2023/12/31 08:32:36;;;;;;;;;0.25;0.00;;;;;-146.67;50.88;74495.91;5084949;27;61779;-78
2023/12/31 08:35:02;;;;;;;;;0.50;0.00;;;;;-146.67;50.68;74501.91;5084323;28;61928;-77
2023/12/31 08:37:28;;;;;;;;;0.00;0.00;;;;;-146.67;50.61;74501.91;5084301;28;61856;-77
2023/12/31 08:39:54;;;;;;;;;0.00;0.00;;;;;-146.67;50.72;74505.91;5083673;28;61985;-78
2023/12/31 08:42:20;;;;;;;;;1.00;0.00;;;;;-146.67;50.65;74507.91;5100376;27;61939;-78
2023/12/31 08:44:45;;;;;;;;;1.00;0.00;;;;;-146.67;50.68;74511.88;5082168;28;63538;-78
2023/12/31 08:47:11;;;;;;;;;3.75;0.75;;;;;-146.67;50.64;74519.88;5083286;28;62128;-78
2023/12/31 08:49:38;;;;;;;;;3.50;0.00;;;;;-146.67;50.63;74525.88;5083872;27;61942;-77
2023/12/31 08:52:03;;;;;;;;;2.25;0.75;;;;;-146.67;50.41;74521.88;5082938;28;61819;-77
2023/12/31 08:54:29;;;;;;;;;3.25;1.00;;;;;-146.67;50.49;74517.88;5083804;27;61859;-77
2023/12/31 08:56:54;;;;;;;;;0.75;0.00;;;;;-146.67;50.51;74517.88;5083416;27;61926;-77
2023/12/31 08:59:20;;;;;;;;;2.00;1.00;;;;;-146.67;50.32;74513.88;5084087;27;61928;-77
2023/12/31 09:01:45;;;;;;;;;2.25;0.00;;;;;-146.67;50.16;74505.91;5084349;27;61861;-77
2023/12/31 09:04:11;;;;;;;;;3.00;2.00;;;;;-146.67;50.07;74509.88;5083529;27;62866;-77
2023/12/31 09:06:37;;;;;;;;;0.00;0.00;;;;;-146.67;50.03;74475.94;5082474;28;61843;-77
2023/12/31 09:09:02;;;;;;;;;2.00;1.00;;;;;-146.67;49.21;74473.97;5083059;28;61904;-77
2023/12/31 09:11:30;;;;;;;;;0.00;0.00;;;;;-146.67;49.16;74467.97;5084206;27;62052;-77
2023/12/31 09:13:55;;;;;;;;;3.00;1.25;;;;;-146.67;49.40;74448.00;5083339;28;62570;-77
2023/12/31 09:16:20;;;;;;;;;0.00;0.00;;;;;-146.67;49.05;74440.00;5083567;27;61711;-77
2023/12/31 09:18:46;;;;;;;;;1.75;1.00;;;;;-146.67;48.63;74446.00;5083942;27;61757;-77
2023/12/31 09:21:11;;;;;;;;;2.00;0.50;;;;;-146.67;48.79;74432.03;5082107;28;61761;-77
2023/12/31 09:23:36;;;;;;;;;1.00;0.00;;;;;-146.67;48.11;74436.03;5083306;27;61797;-77
2023/12/31 09:26:02;;;;;;;;;1.25;1.00;;;;;-146.67;48.27;74446.00;5083934;27;61786;-77
2023/12/31 09:28:27;;;;;;;;;1.25;0.00;;;;;-146.67;48.40;74438.03;5082638;28;61840;-77
2023/12/31 09:30:52;;;;;;;;;2.75;0.00;;;;;-146.67;48.43;74436.03;5083794;27;61637;-77
2023/12/31 09:33:18;;;;;;;;;2.25;1.25;;;;;-146.67;48.10;74450.00;5083104;27;61993;-77
2023/12/31 09:35:43;;;;;;;;;3.00;2.00;;;;;-146.67;48.06;74450.00;5083291;27;61736;-77
2023/12/31 09:38:09;;;;;;;;;2.75;2.00;;;;;-146.67;48.05;74457.97;5083677;28;61885;-77
2023/12/31 09:40:34;;;;;;;;;3.75;2.50;;;;;-146.67;47.55;74463.97;5083972;27;62122;-77
2023/12/31 09:43:02;;;;;;;;;2.00;2.00;;;;;-146.67;47.55;74469.97;5083009;27;61985;-77
2023/12/31 09:45:30;;;;;;;;;1.00;1.00;;;;;-146.67;47.60;74459.97;5083243;27;61808;-77
2023/12/31 09:47:59;;;;;;;;;3.50;2.00;;;;;-146.67;47.69;74467.97;5082414;28;61860;-77
2023/12/31 09:50:25;;;;;;;;;3.00;3.00;;;;;-146.67;47.71;74489.94;5081600;28;62049;-77
2023/12/31 09:52:53;;;;;;;;;10.50;1.00;;;;;-146.67;47.74;74481.94;5082673;27;62475;-77
2023/12/31 09:55:19;;;;;;;;;1.00;1.00;;;;;-146.67;47.49;74467.97;5083534;27;61656;-77
2023/12/31 09:57:48;;;;;;;;;0.25;0.00;;;;;-146.67;47.55;74450.00;5081893;28;62012;-77
2023/12/31 10:00:14;;;;;;;;;6.75;1.50;;;;;-146.67;47.43;74463.97;5083355;28;62017;-77
2023/12/31 10:02:39;;;;;;;;;2.25;1.00;;;;;-146.67;47.41;74456.00;5082672;28;61818;-77
2023/12/31 10:05:06;;;;;;;;;2.75;0.50;;;;;-146.67;47.26;74446.00;5082850;27;61845;-77
2023/12/31 10:07:31;;;;;;;;;3.00;1.25;;;;;-146.67;47.48;74452.00;5082943;28;61889;-77
2023/12/31 10:10:00;;;;;;;;;1.00;1.00;;;;;-146.67;47.21;74452.00;5083549;27;62056;-77
2023/12/31 10:12:27;;;;;;;;;0.50;0.00;;;;;-146.67;47.02;74459.97;5082521;27;61902;-77
2023/12/31 10:14:53;;;;;;;;;3.00;1.00;;;;;-146.67;47.27;74446.00;5081184;28;62080;-77
2023/12/31 10:17:19;;;;;;;;;10.50;2.00;;;;;-146.67;47.22;74444.00;5081794;28;61954;-77
2023/12/31 10:19:47;;;;;;;;;4.50;1.00;;;;;-146.67;47.01;74444.00;5080824;28;62174;-77
2023/12/31 10:22:13;;;;;;;;;2.75;0.00;;;;;-146.67;47.10;74434.03;5080921;28;64683;-78
2023/12/31 10:24:39;;;;;;;;;3.00;0.00;;;;;-146.67;47.11;74402.09;5082942;28;61794;-77
2023/12/31 10:27:06;;;;;;;;;1.00;1.00;;;;;-146.67;47.13;74410.06;5083104;27;61987;-77
2023/12/31 10:29:32;;;;;;;;;4.00;1.00;;;;;-146.67;46.88;74378.13;5082866;27;61783;-77
2023/12/31 10:31:58;;;;;;;;;10.75;5.50;;;;;-146.67;47.00;74350.19;5080650;28;63795;-77
2023/12/31 10:34:23;;;;;;;;;7.00;3.25;;;;;-146.67;46.61;74354.16;5082471;27;61713;-78
2023/12/31 10:36:49;;;;;;;;;2.75;1.00;;;;;-146.67;46.09;74352.19;5081284;28;61851;-78
2023/12/31 10:39:38;;;;;;;;;3.50;1.75;;;;;-146.67;46.43;74344.19;5083098;28;61805;-78
2023/12/31 10:42:05;;;;;;;;;1.25;1.25;;;;;-146.67;46.51;74362.16;5075159;28;63686;-77
2023/12/31 10:44:35;;;;;;;;;3.50;0.25;;;;;-146.67;46.61;74364.16;5082629;27;62137;-77
2023/12/31 10:47:09;;;;;;;;;10.00;1.25;;;;;-146.67;46.16;74350.19;5082335;27;61874;-77
2023/12/31 10:49:35;;;;;;;;;2.50;2.50;;;;;-146.67;46.42;74352.19;5080943;28;62114;-77
2023/12/31 10:52:03;;;;;;;;;4.00;2.50;;;;;-146.67;46.26;74328.22;5081671;27;62165;-78
2023/12/31 10:54:38;;;;;;;;;1.25;1.25;;;;;-146.67;46.19;74324.22;5082681;28;62019;-77
2023/12/31 10:57:06;;;;;;;;;4.00;2.25;;;;;-146.67;45.65;74302.25;5081205;28;61895;-78
2023/12/31 10:59:34;;;;;;;;;10.00;2.00;;;;;-146.67;45.42;74308.25;5080915;28;61812;-77
2023/12/31 11:02:00;;;;;;;;;2.50;1.00;;;;;-146.67;44.99;74302.25;5079962;28;63772;-77
2023/12/31 11:04:27;;;;;;;;;2.00;2.00;;;;;-146.67;45.07;74292.28;5082158;27;61910;-77
2023/12/31 11:06:54;;;;;;;;;3.25;1.50;;;;;-146.67;45.06;74314.25;5082262;27;61856;-77
2023/12/31 11:09:21;;;;;;;;;3.75;1.00;;;;;-146.67;45.11;74292.28;5082724;27;61695;-77
2023/12/31 11:11:46;;;;;;;;;0.50;0.50;;;;;-146.67;44.59;74300.28;5081830;27;61726;-77